Ops Hamburg — A8VS9 — position and weather

sailwx.info

Track history (hours):
 
Tides and Currents Weather Stations Pressure Air Temp Water Temp Dewpoint Dewpoint Depression Visibility Wind Speed Wind Dir Waves Ship Positions

Ops Hamburg

Last reported at 2017-Aug-18 01:48 UTC. Time now 2017-Aug-18 03:05 UTC.
Position N 36°46' E 003°04'.

Length 148 m; draft 8.5 m.

Type: Ship (hazmat cat A). MMSI: 636092040.

Date/timePositionNaut miles runAvg speedWind from/ knotsBaromVisibWave heightAir tempDewpointWater temp
2017-Aug-18 01:48N 36°46' E 003°04'0 0.0
2017-Aug-18 01:30N 36°46' E 003°04'0 0.0
2017-Aug-18 00:57N 36°46' E 003°04'0 0.0
2017-Aug-18 00:27N 36°46' E 003°04'0 0.0
2017-Aug-17 23:27N 36°46' E 003°04'1 0.1
2017-Aug-17 13:18N 36°46' E 003°06'43 9.0
2017-Aug-17 08:29N 37°03' E 003°56'1410.5
2017-Aug-17 07:07N 37°05' E 004°14'111.2
2017-Aug-17 06:59N 37°06' E 004°15'611.1
2017-Aug-17 06:29N 37°06' E 004°22'510.9
2017-Aug-17 06:00N 37°07' E 004°29'1311.1
2017-Aug-17 04:52N 37°09' E 004°44'1111.4
2017-Aug-17 03:56N 37°10' E 004°57'511.2
2017-Aug-17 03:30N 37°12' E 005°03'811.2
2017-Aug-17 02:48N 37°14' E 005°13'410.9
2017-Aug-17 02:23N 37°14' E 005°18'611.0
2017-Aug-17 01:48N 37°14' E 005°26'310.9
2017-Aug-17 01:30N 37°15' E 005°31'1910.9
2017-Aug-16 23:46N 37°17' E 005°54'310.9
2017-Aug-16 23:30N 37°18' E 005°58'611.0
2017-Aug-16 23:00N 37°19' E 006°04'510.7
2017-Aug-16 22:30N 37°20' E 006°11'810.8
2017-Aug-16 21:46N 37°21' E 006°21'3410.4
2017-Aug-16 18:27N 37°26' E 007°04'510.6
2017-Aug-16 17:59N 37°27' E 007°10'510.8
2017-Aug-16 17:30N 37°27' E 007°16'1611.2
2017-Aug-16 16:03N 37°29' E 007°37'111.4
2017-Aug-16 16:00N 37°29' E 007°37'611.3
2017-Aug-16 15:30N 37°30' E 007°44'1811.5
2017-Aug-16 13:57N 37°33' E 008°07'512.1
2017-Aug-16 13:30N 37°33' E 008°13'612.2
2017-Aug-16 13:00N 37°35' E 008°21'612.1
2017-Aug-16 12:30N 37°36' E 008°28'612.1
2017-Aug-16 12:00N 37°37' E 008°36'711.7
2017-Aug-16 11:24N 37°38' E 008°45'511.3
2017-Aug-16 10:59N 37°38' E 008°51'511.1
2017-Aug-16 10:30N 37°39' E 008°57'511.2
2017-Aug-16 10:00N 37°39' E 009°04'611.2
2017-Aug-16 09:28N 37°39' E 009°12'611.1
2017-Aug-16 08:58N 37°39' E 009°19'511.1
2017-Aug-16 08:30N 37°39' E 009°25'611.1
2017-Aug-16 08:00N 37°39' E 009°33'511.0
2017-Aug-16 07:30N 37°39' E 009°39'611.0
2017-Aug-16 07:00N 37°39' E 009°47'611.0
2017-Aug-16 06:29N 37°39' E 009°53'610.8
2017-Aug-16 05:57N 37°39' E 010°01'510.8
2017-Aug-16 05:30N 37°39' E 010°07'611.0
2017-Aug-16 04:58N 37°39' E 010°14'511.1
2017-Aug-16 04:30N 37°38' E 010°21'510.9
2017-Aug-16 04:00N 37°36' E 010°27'710.6
2017-Aug-16 03:23N 37°35' E 010°35'410.5
2017-Aug-16 02:59N 37°34' E 010°41'510.6
2017-Aug-16 02:30N 37°33' E 010°47'510.8
2017-Aug-16 02:00N 37°31' E 010°54'510.8
2017-Aug-16 01:30N 37°30' E 011°00'510.7
2017-Aug-16 01:00N 37°29' E 011°07'510.5
2017-Aug-16 00:30N 37°27' E 011°13'510.7
2017-Aug-16 00:00N 37°24' E 011°19'611.1
2017-Aug-15 23:30N 37°21' E 011°25'611.4
2017-Aug-15 23:00N 37°19' E 011°31'611.6
2017-Aug-15 22:30N 37°16' E 011°37'611.4
2017-Aug-15 22:00N 37°13' E 011°44'511.1
2017-Aug-15 21:30N 37°10' E 011°50'611.3
2017-Aug-15 21:00N 37°07' E 011°56'611.2
2017-Aug-15 20:30N 37°04' E 012°01'611.4
2017-Aug-15 20:00N 37°01' E 012°07'611.3
2017-Aug-15 19:30N 36°57' E 012°13'611.6
2017-Aug-15 19:00N 36°54' E 012°19'611.8
2017-Aug-15 18:29N 36°50' E 012°25'611.9
2017-Aug-15 18:00N 36°46' E 012°30'612.0
2017-Aug-15 17:30N 36°42' E 012°36'612.0
2017-Aug-15 17:00N 36°38' E 012°41'611.8
2017-Aug-15 16:30N 36°35' E 012°47'611.7
2017-Aug-15 16:00N 36°31' E 012°53'611.7
2017-Aug-15 15:30N 36°27' E 012°58'611.6
2017-Aug-15 15:00N 36°24' E 013°04'611.5
2017-Aug-15 14:30N 36°20' E 013°10'611.4
2017-Aug-15 14:00N 36°17' E 013°15'611.7
2017-Aug-15 13:30N 36°13' E 013°21'612.3
2017-Aug-15 13:00N 36°09' E 013°27'612.1
2017-Aug-15 12:30N 36°06' E 013°33'612.0
2017-Aug-15 12:00N 36°02' E 013°39'611.8
2017-Aug-15 11:30N 35°58' E 013°44'611.7
2017-Aug-15 11:00N 35°54' E 013°50'611.7
2017-Aug-15 10:30N 35°51' E 013°56'611.7
2017-Aug-15 10:00N 35°47' E 014°01'611.5
2017-Aug-15 09:30N 35°44' E 014°07'510.4
2017-Aug-15 09:00N 35°40' E 014°12'510.8
2017-Aug-15 08:30N 35°37' E 014°17'611.8
2017-Aug-15 08:00N 35°40' E 014°23'813.1
2017-Aug-15 07:23N 35°44' E 014°32'411.2
2017-Aug-15 07:00N 35°48' E 014°34'1 2.4
2017-Aug-15 06:24N 35°49' E 014°32'0 0.0
2017-Aug-15 05:54N 35°49' E 014°32'0 0.0
2017-Aug-15 05:30N 35°49' E 014°32'0 0.0
2017-Aug-15 04:45N 35°49' E 014°32'0 0.0
2017-Aug-15 04:27N 35°49' E 014°32'0 0.0
2017-Aug-15 04:00N 35°49' E 014°32'0 0.0
2017-Aug-15 03:09N 35°49' E 014°32'0 0.0
2017-Aug-15 02:54N 35°49' E 014°32'0 0.0
2017-Aug-15 02:30N 35°49' E 014°32'0 0.0
2017-Aug-15 01:57N 35°49' E 014°32'0 0.0
2017-Aug-15 01:21N 35°49' E 014°32'0 0.0
2017-Aug-15 01:00N 35°49' E 014°32'0 0.0
2017-Aug-15 00:27N 35°49' E 014°32'0 0.0
2017-Aug-14 23:45N 35°49' E 014°32'0 0.0
2017-Aug-14 23:21N 35°49' E 014°32'0 0.0
2017-Aug-14 22:11N 35°49' E 014°32'0 0.0
2017-Aug-14 21:56N 35°49' E 014°32'0 0.0
2017-Aug-14 21:11N 35°49' E 014°32'0 0.0
2017-Aug-14 20:47N 35°49' E 014°32'0 0.0
2017-Aug-14 20:14N 35°49' E 014°32'0 0.0
2017-Aug-14 19:59N 35°49' E 014°32'0 0.0
2017-Aug-14 19:23N 35°49' E 014°32'0 0.0
2017-Aug-13 22:52N 35°49' E 014°32'0 1.3
2017-Aug-13 22:28N 35°49' E 014°33'2 4.3
2017-Aug-13 22:00N 35°48' E 014°35'3 6.7
2017-Aug-13 21:30N 35°49' E 014°39'5 9.0
2017-Aug-13 21:00N 35°51' E 014°44'0 0.1
2017-Aug-13 20:30N 35°51' E 014°44'0 0.1
2017-Aug-13 19:51N 35°51' E 014°44'0 0.1
2017-Aug-13 19:30N 35°51' E 014°44'0 0.0
2017-Aug-13 19:00N 35°51' E 014°44'0 0.0
2017-Aug-13 18:30N 35°51' E 014°44'0 0.0
2017-Aug-13 18:00N 35°51' E 014°44'0 0.0
2017-Aug-13 17:30N 35°51' E 014°44'0 0.0
2017-Aug-13 17:00N 35°51' E 014°44'0 0.0
2017-Aug-13 16:30N 35°51' E 014°44'0 0.0
2017-Aug-13 16:00N 35°51' E 014°44'0 0.1
2017-Aug-13 15:30N 35°51' E 014°44'0 0.1
2017-Aug-13 14:57N 35°51' E 014°44'0 0.0
2017-Aug-13 14:30N 35°51' E 014°44'0 0.0
2017-Aug-13 14:00N 35°51' E 014°44'0 0.0
2017-Aug-13 13:27N 35°51' E 014°44'0 0.1
2017-Aug-13 13:00N 35°51' E 014°44'0 0.0
2017-Aug-13 12:30N 35°51' E 014°44'0 0.0
2017-Aug-13 11:57N 35°51' E 014°44'0 0.1
2017-Aug-13 11:30N 35°51' E 014°44'0 0.1
2017-Aug-13 11:00N 35°51' E 014°44'0 0.1
2017-Aug-13 10:30N 35°51' E 014°44'0 0.1
2017-Aug-13 10:00N 35°51' E 014°44'0 0.1
2017-Aug-13 09:30N 35°51' E 014°44'0 0.0
2017-Aug-13 09:00N 35°51' E 014°44'0 0.0
2017-Aug-13 08:27N 35°51' E 014°44'0 0.1
2017-Aug-13 08:00N 35°51' E 014°44'0 0.1
2017-Aug-13 07:30N 35°51' E 014°44'0 0.1
2017-Aug-13 07:00N 35°51' E 014°44'0 0.1
2017-Aug-13 06:30N 35°51' E 014°44'0 0.1
2017-Aug-13 06:00N 35°51' E 014°44'0 0.1
2017-Aug-13 05:30N 35°51' E 014°44'0 0.0
2017-Aug-13 05:00N 35°51' E 014°44'0 0.0
2017-Aug-13 04:30N 35°51' E 014°44'0 0.0
2017-Aug-13 04:00N 35°51' E 014°44'0 0.0
2017-Aug-13 03:30N 35°51' E 014°44'0 0.0
2017-Aug-13 03:00N 35°51' E 014°44'0 0.0
2017-Aug-13 02:30N 35°51' E 014°44'0 0.0
2017-Aug-13 02:00N 35°51' E 014°44'0 0.0
2017-Aug-13 01:27N 35°51' E 014°44'0 0.0
2017-Aug-13 01:00N 35°51' E 014°44'0 0.1
2017-Aug-13 00:30N 35°51' E 014°44'0 0.0
2017-Aug-12 23:57N 35°51' E 014°44'0 0.1
2017-Aug-12 23:30N 35°51' E 014°44'0 0.1
2017-Aug-12 23:00N 35°51' E 014°44'0 0.1
2017-Aug-12 22:27N 35°51' E 014°44'0 0.1
2017-Aug-12 22:00N 35°51' E 014°44'0 0.1
2017-Aug-12 21:30N 35°51' E 014°44'0 0.1
2017-Aug-12 21:00N 35°51' E 014°44'0 0.1
2017-Aug-12 20:27N 35°51' E 014°44'0 0.0
2017-Aug-12 20:00N 35°51' E 014°44'0 0.0
2017-Aug-12 19:24N 35°51' E 014°44'0 0.1
2017-Aug-12 19:00N 35°51' E 014°44'0 0.1
2017-Aug-12 18:27N 35°51' E 014°44'0 0.0
2017-Aug-12 18:00N 35°51' E 014°44'0 0.1
2017-Aug-12 17:30N 35°51' E 014°44'0 0.1
2017-Aug-12 17:00N 35°51' E 014°44'0 0.1
2017-Aug-12 16:30N 35°51' E 014°44'0 0.1
2017-Aug-12 16:00N 35°51' E 014°44'0 0.0
2017-Aug-12 15:30N 35°51' E 014°44'0 0.0
2017-Aug-12 15:00N 35°51' E 014°44'0 0.1
2017-Aug-12 14:30N 35°51' E 014°44'0 0.1
2017-Aug-12 14:00N 35°51' E 014°44'0 0.1
2017-Aug-12 13:27N 35°51' E 014°44'0 0.1
2017-Aug-12 13:00N 35°51' E 014°44'0 0.1
2017-Aug-12 12:30N 35°51' E 014°44'0 0.1
2017-Aug-12 12:00N 35°51' E 014°44'0 0.1
2017-Aug-12 11:30N 35°51' E 014°44'0 0.0
2017-Aug-12 11:00N 35°51' E 014°44'0 0.1
2017-Aug-12 10:30N 35°51' E 014°44'0 0.0
2017-Aug-12 10:00N 35°51' E 014°44'0 0.0
2017-Aug-12 09:30N 35°51' E 014°44'0 0.0
2017-Aug-12 09:00N 35°51' E 014°44'0 0.1
2017-Aug-12 08:27N 35°51' E 014°44'0 0.0
2017-Aug-12 08:00N 35°51' E 014°44'0 0.0
2017-Aug-12 07:27N 35°51' E 014°44'0 0.0
2017-Aug-12 07:00N 35°51' E 014°44'0 0.1
2017-Aug-12 06:30N 35°51' E 014°44'0 0.0
2017-Aug-12 06:00N 35°51' E 014°44'0 0.0
2017-Aug-12 05:30N 35°51' E 014°44'0 0.1
2017-Aug-12 05:00N 35°51' E 014°44'0 0.1
2017-Aug-12 04:30N 35°51' E 014°44'0 0.1
2017-Aug-12 04:00N 35°51' E 014°44'0 0.1
2017-Aug-12 03:30N 35°51' E 014°44'0 0.1
2017-Aug-12 03:00N 35°51' E 014°44'0 0.1
2017-Aug-12 02:30N 35°51' E 014°44'0 0.0
2017-Aug-12 02:00N 35°51' E 014°44'0 0.1
2017-Aug-12 01:30N 35°51' E 014°44'0 0.0
2017-Aug-12 01:00N 35°51' E 014°44'0 0.1
2017-Aug-12 00:30N 35°51' E 014°44'0 0.0
2017-Aug-11 23:54N 35°51' E 014°44'0 0.0
2017-Aug-11 23:27N 35°51' E 014°44'0 0.0
2017-Aug-11 23:00N 35°51' E 014°44'0 0.0
2017-Aug-11 22:30N 35°51' E 014°44'0 0.0
2017-Aug-11 21:51N 35°51' E 014°44'0 0.1
2017-Aug-11 21:30N 35°51' E 014°44'0 0.1
2017-Aug-11 21:00N 35°51' E 014°44'0 0.1
2017-Aug-11 20:30N 35°51' E 014°44'0 0.0
2017-Aug-11 20:00N 35°51' E 014°44'0 0.1
2017-Aug-11 19:30N 35°51' E 014°44'0 0.0
2017-Aug-11 19:00N 35°51' E 014°44'0 0.1
2017-Aug-11 18:30N 35°51' E 014°44'0 0.0
2017-Aug-11 18:00N 35°51' E 014°44'0 0.0
2017-Aug-11 17:30N 35°51' E 014°44'0 0.0
2017-Aug-11 17:00N 35°51' E 014°44'0 0.0
2017-Aug-11 16:27N 35°51' E 014°44'0 0.0
2017-Aug-11 16:00N 35°51' E 014°44'0 0.0
2017-Aug-11 15:24N 35°51' E 014°44'0 0.0
2017-Aug-11 14:57N 35°51' E 014°44'0 0.0
2017-Aug-11 14:00N 35°51' E 014°44'0 0.0
2017-Aug-11 13:30N 35°51' E 014°44'0 0.0
2017-Aug-11 13:00N 35°51' E 014°44'0 0.0
2017-Aug-11 12:30N 35°51' E 014°44'0 0.0
2017-Aug-11 12:00N 35°51' E 014°44'0 0.0
2017-Aug-11 11:27N 35°51' E 014°44'0 0.1
2017-Aug-11 11:00N 35°51' E 014°44'0 0.0
2017-Aug-11 10:30N 35°51' E 014°44'0 0.0
2017-Aug-11 09:57N 35°51' E 014°44'0 0.0
2017-Aug-11 09:18N 35°51' E 014°44'0 0.0
2017-Aug-11 09:00N 35°51' E 014°44'0 0.0
2017-Aug-11 08:30N 35°51' E 014°44'0 0.0
2017-Aug-11 08:00N 35°51' E 014°44'0 0.0
2017-Aug-11 07:30N 35°51' E 014°44'0 0.1
2017-Aug-11 06:57N 35°51' E 014°44'0 0.0
2017-Aug-11 06:27N 35°51' E 014°44'0 0.1
2017-Aug-11 05:57N 35°51' E 014°44'0 0.0
2017-Aug-11 05:30N 35°51' E 014°44'0 0.0
2017-Aug-11 05:00N 35°51' E 014°44'0 0.0
2017-Aug-11 04:27N 35°51' E 014°44'0 0.1
2017-Aug-11 04:00N 35°51' E 014°44'0 0.1
2017-Aug-11 03:30N 35°51' E 014°44'0 0.0
2017-Aug-11 02:54N 35°51' E 014°44'0 0.0
2017-Aug-11 02:30N 35°51' E 014°44'0 0.0
2017-Aug-11 01:54N 35°51' E 014°44'0 0.0
2017-Aug-11 01:30N 35°51' E 014°44'0 0.1
2017-Aug-11 01:00N 35°51' E 014°44'0 0.0
2017-Aug-11 00:30N 35°51' E 014°44'0 0.0
2017-Aug-10 23:57N 35°51' E 014°44'0 0.1
2017-Aug-10 23:30N 35°51' E 014°44'0 0.1
2017-Aug-10 23:00N 35°51' E 014°44'0 0.1
2017-Aug-10 22:30N 35°51' E 014°44'0 0.1
2017-Aug-10 21:54N 35°51' E 014°44'0 0.0
2017-Aug-10 21:30N 35°51' E 014°44'0 0.0
2017-Aug-10 21:00N 35°51' E 014°44'0 0.0
2017-Aug-10 20:30N 35°51' E 014°44'0 0.0
2017-Aug-10 19:57N 35°51' E 014°44'0 0.0
2017-Aug-10 19:30N 35°51' E 014°44'0 0.0
2017-Aug-10 19:00N 35°51' E 014°44'0 0.0
2017-Aug-10 18:27N 35°51' E 014°44'0 0.1
2017-Aug-10 18:00N 35°51' E 014°44'0 0.1
2017-Aug-10 17:30N 35°51' E 014°44'0 0.0
2017-Aug-10 17:00N 35°51' E 014°44'0 0.0
2017-Aug-10 16:30N 35°51' E 014°44'0 0.0
2017-Aug-10 16:00N 35°51' E 014°44'0 0.0
2017-Aug-10 15:30N 35°51' E 014°44'0 0.0
2017-Aug-10 15:00N 35°51' E 014°44'0 0.0
2017-Aug-10 14:27N 35°51' E 014°44'0 0.0
2017-Aug-10 14:00N 35°51' E 014°44'0 0.0
2017-Aug-10 13:30N 35°51' E 014°44'0 0.0
2017-Aug-10 13:00N 35°51' E 014°44'0 0.0
2017-Aug-10 12:30N 35°51' E 014°44'0 0.0
2017-Aug-10 12:00N 35°51' E 014°44'0 0.0
2017-Aug-10 11:30N 35°51' E 014°44'0 0.1
2017-Aug-10 11:00N 35°51' E 014°44'0 0.0
2017-Aug-10 10:27N 35°51' E 014°44'0 0.0
2017-Aug-10 10:00N 35°51' E 014°44'0 0.0
2017-Aug-10 09:30N 35°51' E 014°44'0 0.0
2017-Aug-10 09:00N 35°51' E 014°44'0 0.0
2017-Aug-10 08:30N 35°51' E 014°44'0 0.0
2017-Aug-10 08:00N 35°51' E 014°44'0 0.0
2017-Aug-10 07:30N 35°51' E 014°44'0 0.0
2017-Aug-10 07:00N 35°51' E 014°44'0 0.1
2017-Aug-10 06:30N 35°51' E 014°44'0 0.1
2017-Aug-10 05:57N 35°51' E 014°44'0 0.1
2017-Aug-10 05:30N 35°51' E 014°44'0 0.0
2017-Aug-10 04:54N 35°51' E 014°44'0 0.0
2017-Aug-10 04:30N 35°51' E 014°44'0 0.0
2017-Aug-10 04:00N 35°51' E 014°44'0 0.0
2017-Aug-10 03:30N 35°51' E 014°44'0 0.0
2017-Aug-10 03:00N 35°51' E 014°44'0 0.0
2017-Aug-10 02:27N 35°51' E 014°44'0 0.1
2017-Aug-10 02:00N 35°51' E 014°44'0 0.1
2017-Aug-10 01:30N 35°51' E 014°44'0 0.1
2017-Aug-10 01:00N 35°51' E 014°44'0 0.1
2017-Aug-10 00:30N 35°51' E 014°44'0 0.0
2017-Aug-10 00:00N 35°51' E 014°44'0 0.1
2017-Aug-09 23:30N 35°51' E 014°44'0 0.1
2017-Aug-09 23:00N 35°51' E 014°44'0 0.1
2017-Aug-09 22:30N 35°51' E 014°44'0 0.0
2017-Aug-09 21:57N 35°51' E 014°44'0 0.0
2017-Aug-09 21:27N 35°51' E 014°44'0 0.0
2017-Aug-09 21:00N 35°51' E 014°44'0 0.0
2017-Aug-09 20:30N 35°51' E 014°44'0 0.1
2017-Aug-09 20:00N 35°51' E 014°44'0 0.0
2017-Aug-09 19:30N 35°51' E 014°44'0 0.1
2017-Aug-09 19:00N 35°51' E 014°44'0 0.0
2017-Aug-09 18:30N 35°51' E 014°44'0 0.0
2017-Aug-09 18:00N 35°51' E 014°44'0 0.0
2017-Aug-09 17:30N 35°51' E 014°44'0 0.0
2017-Aug-09 17:00N 35°51' E 014°44'0 0.0
2017-Aug-09 16:30N 35°51' E 014°44'0 0.0
2017-Aug-09 16:00N 35°51' E 014°44'0 0.0
2017-Aug-09 15:30N 35°51' E 014°44'0 0.0
2017-Aug-09 15:00N 35°51' E 014°44'0 0.0
2017-Aug-09 14:30N 35°51' E 014°44'0 0.0
2017-Aug-09 14:00N 35°51' E 014°44'0 0.0
2017-Aug-09 13:30N 35°51' E 014°44'0 0.0
2017-Aug-09 13:00N 35°51' E 014°44'0 0.0
2017-Aug-09 12:30N 35°51' E 014°44'0 0.0
2017-Aug-09 12:00N 35°51' E 014°44'0 0.0
2017-Aug-09 11:30N 35°51' E 014°44'0 0.0
2017-Aug-09 11:00N 35°51' E 014°44'0 0.0
2017-Aug-09 10:30N 35°51' E 014°44'0 0.1
2017-Aug-09 10:00N 35°51' E 014°44'0 0.1
2017-Aug-09 09:30N 35°51' E 014°44'0 0.0
2017-Aug-09 09:00N 35°51' E 014°44'0 0.0
2017-Aug-09 08:30N 35°51' E 014°44'0 0.0
2017-Aug-09 08:00N 35°51' E 014°44'0 0.0
2017-Aug-09 07:30N 35°51' E 014°44'0 0.0
2017-Aug-09 07:00N 35°51' E 014°44'0 0.1
2017-Aug-09 06:30N 35°51' E 014°44'0 0.0
2017-Aug-09 06:00N 35°51' E 014°44'0 0.1
2017-Aug-09 05:30N 35°51' E 014°44'0 0.0
2017-Aug-09 05:00N 35°51' E 014°44'0 0.0
2017-Aug-09 04:30N 35°51' E 014°44'0 0.0
2017-Aug-09 04:00N 35°51' E 014°44'0 0.0
2017-Aug-09 03:30N 35°51' E 014°44'0 0.0
2017-Aug-09 03:00N 35°51' E 014°44'0 0.0
2017-Aug-09 02:24N 35°51' E 014°44'0 0.0
2017-Aug-09 02:00N 35°51' E 014°44'0 0.1
2017-Aug-09 01:30N 35°51' E 014°44'0 0.0
2017-Aug-09 00:57N 35°51' E 014°44'0 0.1
2017-Aug-09 00:30N 35°51' E 014°44'0 0.0
2017-Aug-09 00:00N 35°51' E 014°44'0 0.0
2017-Aug-08 23:30N 35°51' E 014°44'0 0.0
2017-Aug-08 23:00N 35°51' E 014°44'0 0.0
2017-Aug-08 22:30N 35°51' E 014°44'0 0.0
2017-Aug-08 22:00N 35°51' E 014°44'0 0.0
2017-Aug-08 21:30N 35°51' E 014°44'0 0.0
2017-Aug-08 21:00N 35°51' E 014°44'0 0.1
2017-Aug-08 20:30N 35°51' E 014°44'0 0.1
2017-Aug-08 19:57N 35°51' E 014°44'0 0.0
2017-Aug-08 19:30N 35°51' E 014°44'0 0.0
2017-Aug-08 19:00N 35°51' E 014°44'0 0.1
2017-Aug-08 18:30N 35°51' E 014°44'0 0.0
2017-Aug-08 18:00N 35°51' E 014°44'0 0.0
2017-Aug-08 17:27N 35°51' E 014°44'0 0.0
2017-Aug-08 16:57N 35°51' E 014°44'0 0.0
2017-Aug-08 16:30N 35°51' E 014°44'0 0.0
2017-Aug-08 16:00N 35°51' E 014°44'0 0.1
2017-Aug-08 15:30N 35°51' E 014°44'0 0.0
2017-Aug-08 15:00N 35°51' E 014°44'0 0.1
2017-Aug-08 14:30N 35°51' E 014°44'0 0.0
2017-Aug-08 14:00N 35°51' E 014°44'0 0.0
2017-Aug-08 13:30N 35°51' E 014°44'0 0.0
2017-Aug-08 13:00N 35°51' E 014°44'0 0.0
2017-Aug-08 12:30N 35°51' E 014°44'0 0.0
2017-Aug-08 12:00N 35°51' E 014°44'0 0.0
2017-Aug-08 11:30N 35°51' E 014°44'0 0.0
2017-Aug-08 11:00N 35°51' E 014°44'0 0.0
2017-Aug-08 10:30N 35°51' E 014°44'0 0.0
2017-Aug-08 10:00N 35°51' E 014°44'0 0.0
2017-Aug-08 09:30N 35°51' E 014°44'0 0.0
2017-Aug-08 09:00N 35°51' E 014°44'0 0.0
2017-Aug-08 08:30N 35°51' E 014°44'0 0.0
2017-Aug-08 08:00N 35°51' E 014°44'0 0.0
2017-Aug-08 07:30N 35°51' E 014°44'0 0.0
2017-Aug-08 07:00N 35°51' E 014°44'0 0.0
2017-Aug-08 06:30N 35°51' E 014°44'0 0.0
2017-Aug-08 06:00N 35°51' E 014°44'0 0.0
2017-Aug-08 05:30N 35°51' E 014°44'0 0.0
2017-Aug-08 05:00N 35°51' E 014°44'0 0.0
2017-Aug-08 04:30N 35°51' E 014°44'0 0.0
2017-Aug-08 04:00N 35°51' E 014°44'0 0.0
2017-Aug-08 03:30N 35°51' E 014°44'0 0.0
2017-Aug-08 02:57N 35°51' E 014°44'0 0.0
2017-Aug-08 02:30N 35°51' E 014°44'0 0.0
2017-Aug-08 02:00N 35°51' E 014°44'  
Track history (hours):
 
Tides and Currents Weather Stations Pressure Air Temp Water Temp Dewpoint Dewpoint Depression Visibility Wind Speed Wind Dir Waves Ship Positions

Ops Hamburg

Last reported at 2017-Aug-18 01:48 UTC. Time now 2017-Aug-18 03:05 UTC.
Position N 36°46' E 003°04'.

Length 148 m; draft 8.5 m.

Type: Ship (hazmat cat A). MMSI: 636092040.

Date/timePositionNaut miles runAvg speedWind from/ knotsBaromVisibWave heightAir tempDewpointWater temp
2017-Aug-18 01:48N 36°46' E 003°04'0 0.0
2017-Aug-18 01:30N 36°46' E 003°04'0 0.0
2017-Aug-18 00:57N 36°46' E 003°04'0 0.0
2017-Aug-18 00:27N 36°46' E 003°04'0 0.0
2017-Aug-17 23:27N 36°46' E 003°04'1 0.1
2017-Aug-17 13:18N 36°46' E 003°06'43 9.0
2017-Aug-17 08:29N 37°03' E 003°56'1410.5
2017-Aug-17 07:07N 37°05' E 004°14'111.2
2017-Aug-17 06:59N 37°06' E 004°15'611.1
2017-Aug-17 06:29N 37°06' E 004°22'510.9
2017-Aug-17 06:00N 37°07' E 004°29'1311.1
2017-Aug-17 04:52N 37°09' E 004°44'1111.4
2017-Aug-17 03:56N 37°10' E 004°57'511.2
2017-Aug-17 03:30N 37°12' E 005°03'811.2
2017-Aug-17 02:48N 37°14' E 005°13'410.9
2017-Aug-17 02:23N 37°14' E 005°18'611.0
2017-Aug-17 01:48N 37°14' E 005°26'310.9
2017-Aug-17 01:30N 37°15' E 005°31'1910.9
2017-Aug-16 23:46N 37°17' E 005°54'310.9
2017-Aug-16 23:30N 37°18' E 005°58'611.0
2017-Aug-16 23:00N 37°19' E 006°04'510.7
2017-Aug-16 22:30N 37°20' E 006°11'810.8
2017-Aug-16 21:46N 37°21' E 006°21'3410.4
2017-Aug-16 18:27N 37°26' E 007°04'510.6
2017-Aug-16 17:59N 37°27' E 007°10'510.8
2017-Aug-16 17:30N 37°27' E 007°16'1611.2
2017-Aug-16 16:03N 37°29' E 007°37'111.4
2017-Aug-16 16:00N 37°29' E 007°37'611.3
2017-Aug-16 15:30N 37°30' E 007°44'1811.5
2017-Aug-16 13:57N 37°33' E 008°07'512.1
2017-Aug-16 13:30N 37°33' E 008°13'612.2
2017-Aug-16 13:00N 37°35' E 008°21'612.1
2017-Aug-16 12:30N 37°36' E 008°28'612.1
2017-Aug-16 12:00N 37°37' E 008°36'711.7
2017-Aug-16 11:24N 37°38' E 008°45'511.3
2017-Aug-16 10:59N 37°38' E 008°51'511.1
2017-Aug-16 10:30N 37°39' E 008°57'511.2
2017-Aug-16 10:00N 37°39' E 009°04'611.2
2017-Aug-16 09:28N 37°39' E 009°12'611.1
2017-Aug-16 08:58N 37°39' E 009°19'511.1
2017-Aug-16 08:30N 37°39' E 009°25'611.1
2017-Aug-16 08:00N 37°39' E 009°33'511.0
2017-Aug-16 07:30N 37°39' E 009°39'611.0
2017-Aug-16 07:00N 37°39' E 009°47'611.0
2017-Aug-16 06:29N 37°39' E 009°53'610.8
2017-Aug-16 05:57N 37°39' E 010°01'510.8
2017-Aug-16 05:30N 37°39' E 010°07'611.0
2017-Aug-16 04:58N 37°39' E 010°14'511.1
2017-Aug-16 04:30N 37°38' E 010°21'510.9
2017-Aug-16 04:00N 37°36' E 010°27'710.6
2017-Aug-16 03:23N 37°35' E 010°35'410.5
2017-Aug-16 02:59N 37°34' E 010°41'510.6
2017-Aug-16 02:30N 37°33' E 010°47'510.8
2017-Aug-16 02:00N 37°31' E 010°54'510.8
2017-Aug-16 01:30N 37°30' E 011°00'510.7
2017-Aug-16 01:00N 37°29' E 011°07'510.5
2017-Aug-16 00:30N 37°27' E 011°13'510.7
2017-Aug-16 00:00N 37°24' E 011°19'611.1
2017-Aug-15 23:30N 37°21' E 011°25'611.4
2017-Aug-15 23:00N 37°19' E 011°31'611.6
2017-Aug-15 22:30N 37°16' E 011°37'611.4
2017-Aug-15 22:00N 37°13' E 011°44'511.1
2017-Aug-15 21:30N 37°10' E 011°50'611.3
2017-Aug-15 21:00N 37°07' E 011°56'611.2
2017-Aug-15 20:30N 37°04' E 012°01'611.4
2017-Aug-15 20:00N 37°01' E 012°07'611.3
2017-Aug-15 19:30N 36°57' E 012°13'611.6
2017-Aug-15 19:00N 36°54' E 012°19'611.8
2017-Aug-15 18:29N 36°50' E 012°25'611.9
2017-Aug-15 18:00N 36°46' E 012°30'612.0
2017-Aug-15 17:30N 36°42' E 012°36'612.0
2017-Aug-15 17:00N 36°38' E 012°41'611.8
2017-Aug-15 16:30N 36°35' E 012°47'611.7
2017-Aug-15 16:00N 36°31' E 012°53'611.7
2017-Aug-15 15:30N 36°27' E 012°58'611.6
2017-Aug-15 15:00N 36°24' E 013°04'611.5
2017-Aug-15 14:30N 36°20' E 013°10'611.4
2017-Aug-15 14:00N 36°17' E 013°15'611.7
2017-Aug-15 13:30N 36°13' E 013°21'612.3
2017-Aug-15 13:00N 36°09' E 013°27'612.1
2017-Aug-15 12:30N 36°06' E 013°33'612.0
2017-Aug-15 12:00N 36°02' E 013°39'611.8
2017-Aug-15 11:30N 35°58' E 013°44'611.7
2017-Aug-15 11:00N 35°54' E 013°50'611.7
2017-Aug-15 10:30N 35°51' E 013°56'611.7
2017-Aug-15 10:00N 35°47' E 014°01'611.5
2017-Aug-15 09:30N 35°44' E 014°07'510.4
2017-Aug-15 09:00N 35°40' E 014°12'510.8
2017-Aug-15 08:30N 35°37' E 014°17'611.8
2017-Aug-15 08:00N 35°40' E 014°23'813.1
2017-Aug-15 07:23N 35°44' E 014°32'411.2
2017-Aug-15 07:00N 35°48' E 014°34'1 2.4
2017-Aug-15 06:24N 35°49' E 014°32'0 0.0
2017-Aug-15 05:54N 35°49' E 014°32'0 0.0
2017-Aug-15 05:30N 35°49' E 014°32'0 0.0
2017-Aug-15 04:45N 35°49' E 014°32'0 0.0
2017-Aug-15 04:27N 35°49' E 014°32'0 0.0
2017-Aug-15 04:00N 35°49' E 014°32'0 0.0
2017-Aug-15 03:09N 35°49' E 014°32'0 0.0
2017-Aug-15 02:54N 35°49' E 014°32'0 0.0
2017-Aug-15 02:30N 35°49' E 014°32'0 0.0
2017-Aug-15 01:57N 35°49' E 014°32'0 0.0
2017-Aug-15 01:21N 35°49' E 014°32'0 0.0
2017-Aug-15 01:00N 35°49' E 014°32'0 0.0
2017-Aug-15 00:27N 35°49' E 014°32'0 0.0
2017-Aug-14 23:45N 35°49' E 014°32'0 0.0
2017-Aug-14 23:21N 35°49' E 014°32'0 0.0
2017-Aug-14 22:11N 35°49' E 014°32'0 0.0
2017-Aug-14 21:56N 35°49' E 014°32'0 0.0
2017-Aug-14 21:11N 35°49' E 014°32'0 0.0
2017-Aug-14 20:47N 35°49' E 014°32'0 0.0
2017-Aug-14 20:14N 35°49' E 014°32'0 0.0
2017-Aug-14 19:59N 35°49' E 014°32'0 0.0
2017-Aug-14 19:23N 35°49' E 014°32'0 0.0
2017-Aug-13 22:52N 35°49' E 014°32'0 1.3
2017-Aug-13 22:28N 35°49' E 014°33'2 4.3
2017-Aug-13 22:00N 35°48' E 014°35'3 6.7
2017-Aug-13 21:30N 35°49' E 014°39'5 9.0
2017-Aug-13 21:00N 35°51' E 014°44'0 0.1
2017-Aug-13 20:30N 35°51' E 014°44'0 0.1
2017-Aug-13 19:51N 35°51' E 014°44'0 0.1
2017-Aug-13 19:30N 35°51' E 014°44'0 0.0
2017-Aug-13 19:00N 35°51' E 014°44'0 0.0
2017-Aug-13 18:30N 35°51' E 014°44'0 0.0
2017-Aug-13 18:00N 35°51' E 014°44'0 0.0
2017-Aug-13 17:30N 35°51' E 014°44'0 0.0
2017-Aug-13 17:00N 35°51' E 014°44'0 0.0
2017-Aug-13 16:30N 35°51' E 014°44'0 0.0
2017-Aug-13 16:00N 35°51' E 014°44'0 0.1
2017-Aug-13 15:30N 35°51' E 014°44'0 0.1
2017-Aug-13 14:57N 35°51' E 014°44'0 0.0
2017-Aug-13 14:30N 35°51' E 014°44'0 0.0
2017-Aug-13 14:00N 35°51' E 014°44'0 0.0
2017-Aug-13 13:27N 35°51' E 014°44'0 0.1
2017-Aug-13 13:00N 35°51' E 014°44'0 0.0
2017-Aug-13 12:30N 35°51' E 014°44'0 0.0
2017-Aug-13 11:57N 35°51' E 014°44'0 0.1
2017-Aug-13 11:30N 35°51' E 014°44'0 0.1
2017-Aug-13 11:00N 35°51' E 014°44'0 0.1
2017-Aug-13 10:30N 35°51' E 014°44'0 0.1
2017-Aug-13 10:00N 35°51' E 014°44'0 0.1
2017-Aug-13 09:30N 35°51' E 014°44'0 0.0
2017-Aug-13 09:00N 35°51' E 014°44'0 0.0
2017-Aug-13 08:27N 35°51' E 014°44'0 0.1
2017-Aug-13 08:00N 35°51' E 014°44'0 0.1
2017-Aug-13 07:30N 35°51' E 014°44'0 0.1
2017-Aug-13 07:00N 35°51' E 014°44'0 0.1
2017-Aug-13 06:30N 35°51' E 014°44'0 0.1
2017-Aug-13 06:00N 35°51' E 014°44'0 0.1
2017-Aug-13 05:30N 35°51' E 014°44'0 0.0
2017-Aug-13 05:00N 35°51' E 014°44'0 0.0
2017-Aug-13 04:30N 35°51' E 014°44'0 0.0
2017-Aug-13 04:00N 35°51' E 014°44'0 0.0
2017-Aug-13 03:30N 35°51' E 014°44'0 0.0
2017-Aug-13 03:00N 35°51' E 014°44'0 0.0
2017-Aug-13 02:30N 35°51' E 014°44'0 0.0
2017-Aug-13 02:00N 35°51' E 014°44'0 0.0
2017-Aug-13 01:27N 35°51' E 014°44'0 0.0
2017-Aug-13 01:00N 35°51' E 014°44'0 0.1
2017-Aug-13 00:30N 35°51' E 014°44'0 0.0
2017-Aug-12 23:57N 35°51' E 014°44'0 0.1
2017-Aug-12 23:30N 35°51' E 014°44'0 0.1
2017-Aug-12 23:00N 35°51' E 014°44'0 0.1
2017-Aug-12 22:27N 35°51' E 014°44'0 0.1
2017-Aug-12 22:00N 35°51' E 014°44'0 0.1
2017-Aug-12 21:30N 35°51' E 014°44'0 0.1
2017-Aug-12 21:00N 35°51' E 014°44'0 0.1
2017-Aug-12 20:27N 35°51' E 014°44'0 0.0
2017-Aug-12 20:00N 35°51' E 014°44'0 0.0
2017-Aug-12 19:24N 35°51' E 014°44'0 0.1
2017-Aug-12 19:00N 35°51' E 014°44'0 0.1
2017-Aug-12 18:27N 35°51' E 014°44'0 0.0
2017-Aug-12 18:00N 35°51' E 014°44'0 0.1
2017-Aug-12 17:30N 35°51' E 014°44'0 0.1
2017-Aug-12 17:00N 35°51' E 014°44'0 0.1
2017-Aug-12 16:30N 35°51' E 014°44'0 0.1
2017-Aug-12 16:00N 35°51' E 014°44'0 0.0
2017-Aug-12 15:30N 35°51' E 014°44'0 0.0
2017-Aug-12 15:00N 35°51' E 014°44'0 0.1
2017-Aug-12 14:30N 35°51' E 014°44'0 0.1
2017-Aug-12 14:00N 35°51' E 014°44'0 0.1
2017-Aug-12 13:27N 35°51' E 014°44'0 0.1
2017-Aug-12 13:00N 35°51' E 014°44'0 0.1
2017-Aug-12 12:30N 35°51' E 014°44'0 0.1
2017-Aug-12 12:00N 35°51' E 014°44'0 0.1
2017-Aug-12 11:30N 35°51' E 014°44'0 0.0
2017-Aug-12 11:00N 35°51' E 014°44'0 0.1
2017-Aug-12 10:30N 35°51' E 014°44'0 0.0
2017-Aug-12 10:00N 35°51' E 014°44'0 0.0
2017-Aug-12 09:30N 35°51' E 014°44'0 0.0
2017-Aug-12 09:00N 35°51' E 014°44'0 0.1
2017-Aug-12 08:27N 35°51' E 014°44'0 0.0
2017-Aug-12 08:00N 35°51' E 014°44'0 0.0
2017-Aug-12 07:27N 35°51' E 014°44'0 0.0
2017-Aug-12 07:00N 35°51' E 014°44'0 0.1
2017-Aug-12 06:30N 35°51' E 014°44'0 0.0
2017-Aug-12 06:00N 35°51' E 014°44'0 0.0
2017-Aug-12 05:30N 35°51' E 014°44'0 0.1
2017-Aug-12 05:00N 35°51' E 014°44'0 0.1
2017-Aug-12 04:30N 35°51' E 014°44'0 0.1
2017-Aug-12 04:00N 35°51' E 014°44'0 0.1
2017-Aug-12 03:30N 35°51' E 014°44'0 0.1
2017-Aug-12 03:00N 35°51' E 014°44'0 0.1
2017-Aug-12 02:30N 35°51' E 014°44'0 0.0
2017-Aug-12 02:00N 35°51' E 014°44'0 0.1
2017-Aug-12 01:30N 35°51' E 014°44'0 0.0
2017-Aug-12 01:00N 35°51' E 014°44'0 0.1
2017-Aug-12 00:30N 35°51' E 014°44'0 0.0
2017-Aug-11 23:54N 35°51' E 014°44'0 0.0
2017-Aug-11 23:27N 35°51' E 014°44'0 0.0
2017-Aug-11 23:00N 35°51' E 014°44'0 0.0
2017-Aug-11 22:30N 35°51' E 014°44'0 0.0
2017-Aug-11 21:51N 35°51' E 014°44'0 0.1
2017-Aug-11 21:30N 35°51' E 014°44'0 0.1
2017-Aug-11 21:00N 35°51' E 014°44'0 0.1
2017-Aug-11 20:30N 35°51' E 014°44'0 0.0
2017-Aug-11 20:00N 35°51' E 014°44'0 0.1
2017-Aug-11 19:30N 35°51' E 014°44'0 0.0
2017-Aug-11 19:00N 35°51' E 014°44'0 0.1
2017-Aug-11 18:30N 35°51' E 014°44'0 0.0
2017-Aug-11 18:00N 35°51' E 014°44'0 0.0
2017-Aug-11 17:30N 35°51' E 014°44'0 0.0
2017-Aug-11 17:00N 35°51' E 014°44'0 0.0
2017-Aug-11 16:27N 35°51' E 014°44'0 0.0
2017-Aug-11 16:00N 35°51' E 014°44'0 0.0
2017-Aug-11 15:24N 35°51' E 014°44'0 0.0
2017-Aug-11 14:57N 35°51' E 014°44'0 0.0
2017-Aug-11 14:00N 35°51' E 014°44'0 0.0
2017-Aug-11 13:30N 35°51' E 014°44'0 0.0
2017-Aug-11 13:00N 35°51' E 014°44'0 0.0
2017-Aug-11 12:30N 35°51' E 014°44'0 0.0
2017-Aug-11 12:00N 35°51' E 014°44'0 0.0
2017-Aug-11 11:27N 35°51' E 014°44'0 0.1
2017-Aug-11 11:00N 35°51' E 014°44'0 0.0
2017-Aug-11 10:30N 35°51' E 014°44'0 0.0
2017-Aug-11 09:57N 35°51' E 014°44'0 0.0
2017-Aug-11 09:18N 35°51' E 014°44'0 0.0
2017-Aug-11 09:00N 35°51' E 014°44'0 0.0
2017-Aug-11 08:30N 35°51' E 014°44'0 0.0
2017-Aug-11 08:00N 35°51' E 014°44'0 0.0
2017-Aug-11 07:30N 35°51' E 014°44'0 0.1
2017-Aug-11 06:57N 35°51' E 014°44'0 0.0
2017-Aug-11 06:27N 35°51' E 014°44'0 0.1
2017-Aug-11 05:57N 35°51' E 014°44'0 0.0
2017-Aug-11 05:30N 35°51' E 014°44'0 0.0
2017-Aug-11 05:00N 35°51' E 014°44'0 0.0
2017-Aug-11 04:27N 35°51' E 014°44'0 0.1
2017-Aug-11 04:00N 35°51' E 014°44'0 0.1
2017-Aug-11 03:30N 35°51' E 014°44'0 0.0
2017-Aug-11 02:54N 35°51' E 014°44'0 0.0
2017-Aug-11 02:30N 35°51' E 014°44'0 0.0
2017-Aug-11 01:54N 35°51' E 014°44'0 0.0
2017-Aug-11 01:30N 35°51' E 014°44'0 0.1
2017-Aug-11 01:00N 35°51' E 014°44'0 0.0
2017-Aug-11 00:30N 35°51' E 014°44'0 0.0
2017-Aug-10 23:57N 35°51' E 014°44'0 0.1
2017-Aug-10 23:30N 35°51' E 014°44'0 0.1
2017-Aug-10 23:00N 35°51' E 014°44'0 0.1
2017-Aug-10 22:30N 35°51' E 014°44'0 0.1
2017-Aug-10 21:54N 35°51' E 014°44'0 0.0
2017-Aug-10 21:30N 35°51' E 014°44'0 0.0
2017-Aug-10 21:00N 35°51' E 014°44'0 0.0
2017-Aug-10 20:30N 35°51' E 014°44'0 0.0
2017-Aug-10 19:57N 35°51' E 014°44'0 0.0
2017-Aug-10 19:30N 35°51' E 014°44'0 0.0
2017-Aug-10 19:00N 35°51' E 014°44'0 0.0
2017-Aug-10 18:27N 35°51' E 014°44'0 0.1
2017-Aug-10 18:00N 35°51' E 014°44'0 0.1
2017-Aug-10 17:30N 35°51' E 014°44'0 0.0
2017-Aug-10 17:00N 35°51' E 014°44'0 0.0
2017-Aug-10 16:30N 35°51' E 014°44'0 0.0
2017-Aug-10 16:00N 35°51' E 014°44'0 0.0
2017-Aug-10 15:30N 35°51' E 014°44'0 0.0
2017-Aug-10 15:00N 35°51' E 014°44'0 0.0
2017-Aug-10 14:27N 35°51' E 014°44'0 0.0
2017-Aug-10 14:00N 35°51' E 014°44'0 0.0
2017-Aug-10 13:30N 35°51' E 014°44'0 0.0
2017-Aug-10 13:00N 35°51' E 014°44'0 0.0
2017-Aug-10 12:30N 35°51' E 014°44'0 0.0
2017-Aug-10 12:00N 35°51' E 014°44'0 0.0
2017-Aug-10 11:30N 35°51' E 014°44'0 0.1
2017-Aug-10 11:00N 35°51' E 014°44'0 0.0
2017-Aug-10 10:27N 35°51' E 014°44'0 0.0
2017-Aug-10 10:00N 35°51' E 014°44'0 0.0
2017-Aug-10 09:30N 35°51' E 014°44'0 0.0
2017-Aug-10 09:00N 35°51' E 014°44'0 0.0
2017-Aug-10 08:30N 35°51' E 014°44'0 0.0
2017-Aug-10 08:00N 35°51' E 014°44'0 0.0
2017-Aug-10 07:30N 35°51' E 014°44'0 0.0
2017-Aug-10 07:00N 35°51' E 014°44'0 0.1
2017-Aug-10 06:30N 35°51' E 014°44'0 0.1
2017-Aug-10 05:57N 35°51' E 014°44'0 0.1
2017-Aug-10 05:30N 35°51' E 014°44'0 0.0
2017-Aug-10 04:54N 35°51' E 014°44'0 0.0
2017-Aug-10 04:30N 35°51' E 014°44'0 0.0
2017-Aug-10 04:00N 35°51' E 014°44'0 0.0
2017-Aug-10 03:30N 35°51' E 014°44'0 0.0
2017-Aug-10 03:00N 35°51' E 014°44'0 0.0
2017-Aug-10 02:27N 35°51' E 014°44'0 0.1
2017-Aug-10 02:00N 35°51' E 014°44'0 0.1
2017-Aug-10 01:30N 35°51' E 014°44'0 0.1
2017-Aug-10 01:00N 35°51' E 014°44'0 0.1
2017-Aug-10 00:30N 35°51' E 014°44'0 0.0
2017-Aug-10 00:00N 35°51' E 014°44'0 0.1
2017-Aug-09 23:30N 35°51' E 014°44'0 0.1
2017-Aug-09 23:00N 35°51' E 014°44'0 0.1
2017-Aug-09 22:30N 35°51' E 014°44'0 0.0
2017-Aug-09 21:57N 35°51' E 014°44'0 0.0
2017-Aug-09 21:27N 35°51' E 014°44'0 0.0
2017-Aug-09 21:00N 35°51' E 014°44'0 0.0
2017-Aug-09 20:30N 35°51' E 014°44'0 0.1
2017-Aug-09 20:00N 35°51' E 014°44'0 0.0
2017-Aug-09 19:30N 35°51' E 014°44'0 0.1
2017-Aug-09 19:00N 35°51' E 014°44'0 0.0
2017-Aug-09 18:30N 35°51' E 014°44'0 0.0
2017-Aug-09 18:00N 35°51' E 014°44'0 0.0
2017-Aug-09 17:30N 35°51' E 014°44'0 0.0
2017-Aug-09 17:00N 35°51' E 014°44'0 0.0
2017-Aug-09 16:30N 35°51' E 014°44'0 0.0
2017-Aug-09 16:00N 35°51' E 014°44'0 0.0
2017-Aug-09 15:30N 35°51' E 014°44'0 0.0
2017-Aug-09 15:00N 35°51' E 014°44'0 0.0
2017-Aug-09 14:30N 35°51' E 014°44'0 0.0
2017-Aug-09 14:00N 35°51' E 014°44'0 0.0
2017-Aug-09 13:30N 35°51' E 014°44'0 0.0
2017-Aug-09 13:00N 35°51' E 014°44'0 0.0
2017-Aug-09 12:30N 35°51' E 014°44'0 0.0
2017-Aug-09 12:00N 35°51' E 014°44'0 0.0
2017-Aug-09 11:30N 35°51' E 014°44'0 0.0
2017-Aug-09 11:00N 35°51' E 014°44'0 0.0
2017-Aug-09 10:30N 35°51' E 014°44'0 0.1
2017-Aug-09 10:00N 35°51' E 014°44'0 0.1
2017-Aug-09 09:30N 35°51' E 014°44'0 0.0
2017-Aug-09 09:00N 35°51' E 014°44'0 0.0
2017-Aug-09 08:30N 35°51' E 014°44'0 0.0
2017-Aug-09 08:00N 35°51' E 014°44'0 0.0
2017-Aug-09 07:30N 35°51' E 014°44'0 0.0
2017-Aug-09 07:00N 35°51' E 014°44'0 0.1
2017-Aug-09 06:30N 35°51' E 014°44'0 0.0
2017-Aug-09 06:00N 35°51' E 014°44'0 0.1
2017-Aug-09 05:30N 35°51' E 014°44'0 0.0
2017-Aug-09 05:00N 35°51' E 014°44'0 0.0
2017-Aug-09 04:30N 35°51' E 014°44'0 0.0
2017-Aug-09 04:00N 35°51' E 014°44'0 0.0
2017-Aug-09 03:30N 35°51' E 014°44'0 0.0
2017-Aug-09 03:00N 35°51' E 014°44'0 0.0
2017-Aug-09 02:24N 35°51' E 014°44'0 0.0
2017-Aug-09 02:00N 35°51' E 014°44'0 0.1
2017-Aug-09 01:30N 35°51' E 014°44'0 0.0
2017-Aug-09 00:57N 35°51' E 014°44'0 0.1
2017-Aug-09 00:30N 35°51' E 014°44'0 0.0
2017-Aug-09 00:00N 35°51' E 014°44'0 0.0
2017-Aug-08 23:30N 35°51' E 014°44'0 0.0
2017-Aug-08 23:00N 35°51' E 014°44'0 0.0
2017-Aug-08 22:30N 35°51' E 014°44'0 0.0
2017-Aug-08 22:00N 35°51' E 014°44'0 0.0
2017-Aug-08 21:30N 35°51' E 014°44'0 0.0
2017-Aug-08 21:00N 35°51' E 014°44'0 0.1
2017-Aug-08 20:30N 35°51' E 014°44'0 0.1
2017-Aug-08 19:57N 35°51' E 014°44'0 0.0
2017-Aug-08 19:30N 35°51' E 014°44'0 0.0
2017-Aug-08 19:00N 35°51' E 014°44'0 0.1
2017-Aug-08 18:30N 35°51' E 014°44'0 0.0
2017-Aug-08 18:00N 35°51' E 014°44'0 0.0
2017-Aug-08 17:27N 35°51' E 014°44'0 0.0
2017-Aug-08 16:57N 35°51' E 014°44'0 0.0
2017-Aug-08 16:30N 35°51' E 014°44'0 0.0
2017-Aug-08 16:00N 35°51' E 014°44'0 0.1
2017-Aug-08 15:30N 35°51' E 014°44'0 0.0
2017-Aug-08 15:00N 35°51' E 014°44'0 0.1
2017-Aug-08 14:30N 35°51' E 014°44'0 0.0
2017-Aug-08 14:00N 35°51' E 014°44'0 0.0
2017-Aug-08 13:30N 35°51' E 014°44'0 0.0
2017-Aug-08 13:00N 35°51' E 014°44'0 0.0
2017-Aug-08 12:30N 35°51' E 014°44'0 0.0
2017-Aug-08 12:00N 35°51' E 014°44'0 0.0
2017-Aug-08 11:30N 35°51' E 014°44'0 0.0
2017-Aug-08 11:00N 35°51' E 014°44'0 0.0
2017-Aug-08 10:30N 35°51' E 014°44'0 0.0
2017-Aug-08 10:00N 35°51' E 014°44'0 0.0
2017-Aug-08 09:30N 35°51' E 014°44'0 0.0
2017-Aug-08 09:00N 35°51' E 014°44'0 0.0
2017-Aug-08 08:30N 35°51' E 014°44'0 0.0
2017-Aug-08 08:00N 35°51' E 014°44'0 0.0
2017-Aug-08 07:30N 35°51' E 014°44'0 0.0
2017-Aug-08 07:00N 35°51' E 014°44'0 0.0
2017-Aug-08 06:30N 35°51' E 014°44'0 0.0
2017-Aug-08 06:00N 35°51' E 014°44'0 0.0
2017-Aug-08 05:30N 35°51' E 014°44'0 0.0
2017-Aug-08 05:00N 35°51' E 014°44'0 0.0
2017-Aug-08 04:30N 35°51' E 014°44'0 0.0
2017-Aug-08 04:00N 35°51' E 014°44'0 0.0
2017-Aug-08 03:30N 35°51' E 014°44'0 0.0
2017-Aug-08 02:57N 35°51' E 014°44'0 0.0
2017-Aug-08 02:30N 35°51' E 014°44'0 0.0
2017-Aug-08 02:00N 35°51' E 014°44'  

Dump ship's entire track history